Terminal Aerodrome Forecast
Issued by NWS Wakefield, VA

Home | Current Version | Previous Version | Text Only | Print | Product List | Glossary On
Versions: 1 2 3 4 5 6 7 8 9 10 11 12 13 14 15 16 17 18 19 20 21 22 23 24 25 26 27 28
000
FTUS41 KAKQ 222328
TAFORF
TAF
KORF 222328Z 2300/2324 04011G18KT 2SM BR BKN003
     FM230200 02010G18KT 2SM BR OVC002
     FM230400 03007KT 1SM -DZ BR OVC002
     FM231400 02007KT 4SM BR OVC004
     FM231700 VRB03KT P6SM BKN005
     FM232200 15004KT P6SM BKN020=

USA.gov is the U.S. government's official web portal to all federal, state and local government web resources and services.